CDT,Max TemperatureF,Mean TemperatureF,Min TemperatureF,Max Dew PointF,MeanDew PointF,Min DewpointF,Max Humidity, Mean Humidity, Min Humidity, Max Sea Level PressureIn, Mean Sea Level PressureIn, Min Sea Level PressureIn, Max VisibilityMiles, Mean VisibilityMiles, Min VisibilityMiles, Max Wind SpeedMPH, Mean Wind SpeedMPH, Max Gust SpeedMPH,PrecipitationIn, CloudCover, Events, WindDirDegrees
2013-3-1,51,42,32,30,28,23,87,63,33,30.27,30.21,30.16,10,10,5,14,5,23,0.00,0,,312
2013-3-2,50,40,30,27,20,14,80,51,25,30.39,30.31,30.25,10,10,7,13,6,21,0.00,1,,312
2013-3-3,66,48,30,34,27,21,80,48,26,30.25,30.08,29.85,10,10,10,17,4,18,0.00,0,,147
2013-3-4,78,64,51,48,43,34,72,50,26,29.84,29.71,29.61,10,10,7,18,10,26,0.00,0,,181
2013-3-5,60,50,37,46,26,18,72,43,23,30.35,30.17,29.75,10,10,7,22,11,37,0.00,1,,310
2013-3-6,59,46,32,28,20,10,69,41,15,30.44,30.34,30.23,10,10,7,9,4,,0.00,0,,326
2013-3-7,68,52,35,32,27,19,81,43,21,30.32,30.24,30.16,10,10,5,13,6,17,0.00,0,,114
2013-3-8,66,54,42,36,33,28,70,41,28,30.27,30.16,30.06,10,10,7,12,7,17,0.00,3,,110
2013-3-9,68,62,55,57,50,34,77,63,34,30.05,29.89,29.74,10,9,4,20,10,25,0.00,5,,135
2013-3-10,66,52,39,59,41,27,100,69,47,30.05,29.87,29.72,10,9,1,15,10,23,0.37,5,,275
2013-3-11,53,42,32,30,26,18,87,57,24,30.08,30.05,30.00,10,10,10,12,6,20,0.00,0,,286
2013-3-12,64,48,32,32,27,19,87,51,19,30.31,30.18,30.06,10,10,7,7,1,,0.00,0,,21
2013-3-13,64,50,35,36,29,23,87,46,21,30.49,30.39,30.32,10,10,7,8,3,,0.00,0,,22
2013-3-14,75,55,35,41,35,28,87,46,24,30.38,30.30,30.19,10,10,7,12,3,22,0.00,0,,184
2013-3-15,78,64,51,50,44,39,77,49,26,30.19,30.06,29.90,10,10,7,17,6,24,0.00,0,,190
2013-3-16,80,68,55,52,49,45,77,50,30,29.90,29.84,29.73,10,10,7,17,9,24,0.00,0,,170
2013-3-17,77,64,51,59,54,46,83,66,47,29.80,29.74,29.66,10,9,5,15,8,25,0.00,4,,180
2013-3-18,69,60,50,52,44,36,94,65,33,30.04,29.83,29.66,10,8,1,15,5,21,0.01,2,,345
2013-3-19,64,52,41,37,33,27,81,48,24,30.17,30.08,30.00,10,10,7,16,6,22,0.00,0,,54
2013-3-20,64,53,42,32,27,18,57,37,18,30.32,30.20,30.08,10,10,7,12,5,18,0.00,0,,11
2013-3-21,51,48,44,37,31,23,66,52,35,30.07,29.89,29.71,10,10,4,15,7,23,0.02,3,,93
2013-3-22,46,44,41,45,43,36,100,94,66,29.86,29.79,29.70,10,4,1,13,9,21,0.27,8,,54
2013-3-23,50,47,44,46,45,43,100,93,87,29.90,29.78,29.68,10,5,0,13,4,17,0.21,8,,45
2013-3-24,50,44,37,48,31,23,100,64,40,30.15,29.98,29.75,10,10,2,18,10,32,0.00,5,,300
2013-3-25,50,40,30,25,19,12,75,46,22,30.40,30.27,30.16,10,10,10,17,7,25,0.00,0,,304
2013-3-26,53,40,26,28,21,18,75,51,26,30.50,30.40,30.33,10,10,10,9,2,,0.00,0,,300
2013-3-27,68,50,32,28,25,21,81,44,17,30.37,30.27,30.16,10,10,7,15,5,21,0.03,0,,135
2013-3-28,71,60,48,52,44,30,71,54,38,30.28,30.20,30.13,10,10,7,12,6,,0.00,5,,145
2013-3-29,73,66,59,55,53,50,82,62,47,30.20,30.15,30.09,10,10,7,12,6,17,0.00,3,,175
2013-3-30,69,64,59,63,60,54,100,85,68,30.08,30.00,29.92,10,8,0,10,4,20,1.40,5,,134
2013-3-31,71,63,55,61,56,45,100,78,46,29.98,29.93,29.86,10,8,1,32,3,44,0.92,4,,55